Time;durP1;ratioP1;P1;durP2;ratioP2;P2;SDS_P1;SDS_P2;PMS_P1;PMS_P2;Temp;Humidity;BMP_temperature;BMP_pressure;BME280_temperature;BME280_humidity;BME280_pressure;Samples;Min_cycle;Max_cycle;Signal;HPM_P1;HPM_P2
2024/03/20 00:00:43;;;;;;;7.30;1.67;;;13.70;99.80;;;;;;4134953;28;20061;-58
2024/03/20 00:02:44;;;;;;;1.48;0.73;;;13.80;99.60;;;;;;4135768;28;20052;-65
2024/03/20 00:04:47;;;;;;;2.45;1.35;;;13.80;99.40;;;;;;4137529;28;20056;-55
2024/03/20 00:06:49;;;;;;;1.55;1.25;;;13.80;99.70;;;;;;4133197;28;20050;-53
2024/03/20 00:08:50;;;;;;;1.27;0.68;;;13.90;99.40;;;;;;4132338;28;20119;-53
2024/03/20 00:10:51;;;;;;;1.25;0.73;;;13.90;99.20;;;;;;4131781;28;20155;-54
2024/03/20 00:12:53;;;;;;;4.75;1.80;;;13.90;99.10;;;;;;4132055;28;20514;-54
2024/03/20 00:14:54;;;;;;;2.95;0.80;;;13.90;99.30;;;;;;4131987;28;20506;-53
2024/03/20 00:17:02;;;;;;;1.42;0.70;;;13.90;99.20;;;;;;4131984;28;20057;-56
2024/03/20 00:19:03;;;;;;;1.10;0.60;;;13.90;98.70;;;;;;4132100;28;20051;-56
2024/03/20 00:21:06;;;;;;;0.82;0.60;;;13.80;98.90;;;;;;4131645;28;20052;-56
2024/03/20 00:23:08;;;;;;;0.68;0.57;;;13.80;99.10;;;;;;4132173;28;20046;-53
2024/03/20 00:25:10;;;;;;;5.20;1.48;;;13.90;99.10;;;;;;4132293;28;20054;-54
2024/03/20 00:27:11;;;;;;;1.55;0.57;;;13.90;99.00;;;;;;4131950;28;20054;-54
2024/03/20 00:29:15;;;;;;;2.35;1.33;;;13.90;99.00;;;;;;4116221;28;20434;-53
2024/03/20 00:31:16;;;;;;;15.40;0.95;;;13.90;98.60;;;;;;4120601;28;20498;-56
2024/03/20 00:33:18;;;;;;;1.50;1.00;;;13.90;98.70;;;;;;4115699;28;20053;-52
2024/03/20 00:35:19;;;;;;;2.40;1.33;;;13.80;98.50;;;;;;4116525;28;20055;-54
2024/03/20 00:37:22;;;;;;;2.83;1.75;;;13.80;98.70;;;;;;4118034;28;20058;-53
2024/03/20 00:39:24;;;;;;;4.07;1.40;;;13.80;98.80;;;;;;4115966;28;20077;-54
2024/03/20 00:41:25;;;;;;;1.88;0.77;;;13.80;98.90;;;;;;4115494;28;20054;-53
2024/03/20 00:43:26;;;;;;;1.73;0.98;;;13.80;99.10;;;;;;4115545;28;20051;-56
2024/03/20 00:45:28;;;;;;;1.20;0.77;;;13.80;99.10;;;;;;4115654;28;20057;-56
2024/03/20 00:47:29;;;;;;;0.98;0.82;;;13.70;99.20;;;;;;4115458;28;20081;-53
2024/03/20 00:49:31;;;;;;;2.67;1.10;;;13.70;99.30;;;;;;4115291;28;20051;-56
2024/03/20 00:51:32;;;;;;;3.28;0.90;;;13.70;99.40;;;;;;4099028;29;20055;-56
2024/03/20 00:53:36;;;;;;;1.85;0.90;;;13.70;99.10;;;;;;4115229;28;20057;-55
2024/03/20 00:55:37;;;;;;;2.95;1.52;;;13.70;99.10;;;;;;4122188;28;20452;-54
2024/03/20 00:57:40;;;;;;;1.55;0.60;;;13.70;99.10;;;;;;4116582;28;20462;-61
2024/03/20 00:59:41;;;;;;;2.78;1.98;;;13.70;99.30;;;;;;4132199;28;20054;-54
2024/03/20 01:01:43;;;;;;;10.52;0.70;;;13.70;99.20;;;;;;4115376;28;20058;-60
2024/03/20 01:03:44;;;;;;;2.80;1.75;;;13.70;98.90;;;;;;4131381;28;20500;-56
2024/03/20 01:05:46;;;;;;;5.25;0.85;;;13.70;99.00;;;;;;4135892;28;20042;-56
2024/03/20 01:07:48;;;;;;;4.50;1.65;;;13.70;99.10;;;;;;4115177;28;20054;-57
2024/03/20 01:09:50;;;;;;;2.05;0.95;;;13.70;99.30;;;;;;4131015;28;20414;-55
2024/03/20 01:11:52;;;;;;;5.78;1.85;;;13.70;99.30;;;;;;4131156;28;20061;-57
2024/03/20 01:13:53;;;;;;;2.10;1.00;;;13.60;99.10;;;;;;4131476;28;20050;-56
2024/03/20 01:15:55;;;;;;;1.90;1.38;;;13.60;99.30;;;;;;4131344;28;20533;-55
2024/03/20 01:17:56;;;;;;;3.58;0.63;;;13.60;99.30;;;;;;4131435;28;20482;-57
2024/03/20 01:19:58;;;;;;;2.33;1.63;;;13.60;99.70;;;;;;4131149;28;20525;-56
2024/03/20 01:21:59;;;;;;;3.85;0.98;;;13.60;99.60;;;;;;4131326;28;20060;-56
2024/03/20 01:24:01;;;;;;;2.88;2.10;;;13.50;99.50;;;;;;4130637;28;20066;-56
2024/03/20 01:26:04;;;;;;;5.38;0.88;;;13.60;99.80;;;;;;4131054;28;20050;-56
2024/03/20 01:28:06;;;;;;;1.80;1.17;;;13.50;99.50;;;;;;4131000;28;20055;-53
2024/03/20 01:30:08;;;;;;;2.13;0.77;;;13.60;99.50;;;;;;4128984;28;20049;-52
2024/03/20 01:32:09;;;;;;;4.15;1.10;;;13.60;99.60;;;;;;4114371;28;20065;-55
2024/03/20 01:34:12;;;;;;;2.28;1.10;;;13.60;99.40;;;;;;4114153;28;20522;-52
2024/03/20 01:36:14;;;;;;;1.75;0.88;;;13.50;99.50;;;;;;4114913;28;20061;-55
2024/03/20 01:38:15;;;;;;;2.58;1.27;;;13.50;99.50;;;;;;4114463;28;20053;-54
2024/03/20 01:40:16;;;;;;;1.48;0.90;;;13.40;99.50;;;;;;4115065;28;20047;-54
2024/03/20 01:42:19;;;;;;;1.02;0.73;;;13.50;99.70;;;;;;4115236;28;20050;-57
2024/03/20 01:44:21;;;;;;;1.90;1.08;;;13.50;99.50;;;;;;4114550;28;20122;-58
2024/03/20 01:46:28;;;;;;;2.58;1.30;;;13.50;99.40;;;;;;4098418;29;20055;-57
2024/03/20 01:48:30;;;;;;;0.88;0.88;;;13.40;99.50;;;;;;4114796;28;20073;-57
2024/03/20 01:50:31;;;;;;;1.33;0.73;;;13.50;99.80;;;;;;4114611;28;20057;-54
2024/03/20 01:52:33;;;;;;;2.28;1.63;;;13.40;99.90;;;;;;4114261;28;20053;-54
2024/03/20 01:54:35;;;;;;;2.97;1.48;;;13.40;99.90;;;;;;4114946;28;20047;-57
2024/03/20 01:56:36;;;;;;;2.53;1.02;;;13.40;99.90;;;;;;4129249;28;20042;-56
2024/03/20 01:58:39;;;;;;;2.50;1.80;;;13.30;99.90;;;;;;4130695;28;20046;-56
2024/03/20 02:00:42;;;;;;;2.72;1.10;;;13.40;99.90;;;;;;4130875;28;20050;-53
2024/03/20 02:02:44;;;;;;;0.82;0.73;;;13.40;99.90;;;;;;4130820;28;20112;-54
2024/03/20 02:04:47;;;;;;;4.28;1.20;;;13.40;99.60;;;;;;4130449;28;20052;-55
2024/03/20 02:06:48;;;;;;;3.08;0.70;;;13.50;99.90;;;;;;4130087;28;20054;-52
2024/03/20 02:08:51;;;;;;;5.63;0.90;;;13.40;99.90;;;;;;4131183;28;20050;-56
2024/03/20 02:10:52;;;;;;;1.48;1.00;;;13.40;99.90;;;;;;4130301;28;20050;-56
2024/03/20 02:13:04;;;;;;;1.52;1.02;;;13.40;99.90;;;;;;4130184;28;20064;-57
2024/03/20 02:15:12;;;;;;;3.53;0.95;;;13.30;99.90;;;;;;4131366;28;20043;-56
2024/03/20 02:17:14;;;;;;;2.92;1.20;;;13.20;99.90;;;;;;4131330;28;20544;-57
2024/03/20 02:19:15;;;;;;;1.38;0.80;;;13.10;99.90;;;;;;4131432;28;20050;-55
2024/03/20 02:21:20;;;;;;;1.48;1.13;;;13.00;99.90;;;;;;4131582;28;20046;-55
2024/03/20 02:23:21;;;;;;;1.27;0.90;;;12.90;99.90;;;;;;4131419;28;20057;-58
2024/03/20 02:25:29;;;;;;;1.75;1.13;;;12.90;99.90;;;;;;4130648;28;20472;-55
2024/03/20 02:27:30;;;;;;;1.25;0.85;;;12.90;99.90;;;;;;4130344;28;20072;-55
2024/03/20 02:29:31;;;;;;;3.88;1.63;;;12.90;99.90;;;;;;4130262;28;20043;-55
2024/03/20 02:31:34;;;;;;;2.05;1.40;;;12.80;99.90;;;;;;4100705;28;20044;-55
2024/03/20 02:33:38;;;;;;;5.53;1.83;;;12.90;99.90;;;;;;4113967;28;20054;-52
2024/03/20 02:35:40;;;;;;;8.93;2.45;;;12.90;99.90;;;;;;4114011;28;20066;-52
2024/03/20 02:37:43;;;;;;;1.65;1.55;;;12.90;99.90;;;;;;4114910;28;20054;-52
2024/03/20 02:39:46;;;;;;;1.83;1.73;;;12.90;99.90;;;;;;4114939;28;20055;-57
2024/03/20 02:41:47;;;;;;;1.67;0.98;;;12.90;99.90;;;;;;4114290;28;20047;-53
2024/03/20 02:43:49;;;;;;;5.68;2.75;;;13.00;99.90;;;;;;4114603;28;20057;-52
2024/03/20 02:45:50;;;;;;;0.73;0.60;;;12.90;99.90;;;;;;4117425;28;20073;-53
2024/03/20 02:47:52;;;;;;;3.22;1.88;;;12.90;99.90;;;;;;4117349;28;20057;-55
2024/03/20 02:49:53;;;;;;;0.60;0.57;;;12.90;99.90;;;;;;4117303;28;20047;-54
2024/03/20 02:51:54;;;;;;;1.25;0.90;;;12.90;99.90;;;;;;4116737;28;20055;-56
2024/03/20 02:53:57;;;;;;;1.25;0.85;;;13.00;99.90;;;;;;4117105;28;20509;-55
2024/03/20 02:55:58;;;;;;;2.55;1.17;;;12.90;99.90;;;;;;4126847;28;20042;-55
2024/03/20 02:58:01;;;;;;;0.52;0.50;;;12.80;99.90;;;;;;4133376;28;20049;-54
2024/03/20 03:00:03;;;;;;;0.82;0.68;;;12.80;99.90;;;;;;4133849;28;20481;-55
2024/03/20 03:02:04;;;;;;;3.60;0.80;;;12.90;99.90;;;;;;4117995;28;20498;-52
2024/03/20 03:04:06;;;;;;;0.50;0.50;;;12.80;99.90;;;;;;4134452;28;20059;-52
2024/03/20 03:06:07;;;;;;;0.90;0.75;;;12.70;99.90;;;;;;4117938;28;20059;-60
2024/03/20 03:08:09;;;;;;;0.80;0.80;;;12.80;99.90;;;;;;4136236;28;20057;-59
2024/03/20 03:10:14;;;;;;;2.05;0.80;;;12.60;99.90;;;;;;4135603;28;20054;-55
2024/03/20 03:12:15;;;;;;;1.52;1.00;;;12.60;99.90;;;;;;4135552;28;20054;-57
2024/03/20 03:14:17;;;;;;;1.27;0.93;;;12.60;99.90;;;;;;4136012;28;20047;-55
2024/03/20 03:16:18;;;;;;;2.25;1.02;;;12.80;99.90;;;;;;4136196;28;20077;-55
2024/03/20 03:18:20;;;;;;;0.93;0.85;;;12.70;99.90;;;;;;4136051;28;20046;-52
2024/03/20 03:20:23;;;;;;;2.65;0.55;;;12.70;99.90;;;;;;4133233;28;20055;-52
2024/03/20 03:22:24;;;;;;;1.80;0.75;;;12.70;99.90;;;;;;4134170;28;20054;-58
2024/03/20 03:24:26;;;;;;;2.05;0.73;;;12.60;99.90;;;;;;4135039;28;20058;-53
2024/03/20 03:26:28;;;;;;;0.77;0.70;;;12.60;99.90;;;;;;4133566;28;20421;-53
2024/03/20 03:28:30;;;;;;;1.48;0.68;;;12.60;99.90;;;;;;4132939;28;20096;-52
2024/03/20 03:30:32;;;;;;;0.65;0.50;;;12.50;99.90;;;;;;4127915;28;20058;-53
2024/03/20 03:32:33;;;;;;;1.35;0.88;;;12.50;99.90;;;;;;4116791;28;20055;-53
2024/03/20 03:34:35;;;;;;;1.05;0.73;;;12.50;99.90;;;;;;4116403;28;20510;-52
2024/03/20 03:36:37;;;;;;;1.08;0.90;;;12.60;99.90;;;;;;4116585;28;20065;-55
2024/03/20 03:38:40;;;;;;;1.10;0.65;;;12.60;99.90;;;;;;4116817;28;20059;-53
2024/03/20 03:40:41;;;;;;;2.45;0.85;;;12.50;99.90;;;;;;4116773;28;20486;-55
2024/03/20 03:42:44;;;;;;;2.50;1.35;;;12.40;99.90;;;;;;4116520;28;20046;-54
2024/03/20 03:44:46;;;;;;;1.30;0.80;;;12.40;99.90;;;;;;4116747;28;20046;-53
2024/03/20 03:46:47;;;;;;;1.40;1.08;;;12.40;99.90;;;;;;4116561;28;20054;-53
2024/03/20 03:48:49;;;;;;;2.38;1.00;;;12.40;99.90;;;;;;4117792;28;20057;-56
2024/03/20 03:50:51;;;;;;;1.95;0.90;;;12.30;99.90;;;;;;4101265;29;20535;-56
2024/03/20 03:52:52;;;;;;;1.40;1.17;;;12.30;99.90;;;;;;4116396;28;20061;-55
2024/03/20 03:54:54;;;;;;;1.90;0.93;;;12.30;99.90;;;;;;4117676;28;20059;-53
2024/03/20 03:56:58;;;;;;;2.03;0.90;;;12.30;99.90;;;;;;4132777;28;20536;-53
2024/03/20 03:59:00;;;;;;;2.58;0.70;;;12.30;99.90;;;;;;4133273;28;20050;-52
2024/03/20 04:01:02;;;;;;;2.35;0.90;;;12.30;99.90;;;;;;4132795;28;20053;-53
2024/03/20 04:03:04;;;;;;;1.35;1.08;;;12.30;99.90;;;;;;4132187;28;20054;-52
2024/03/20 04:05:06;;;;;;;3.10;0.90;;;12.30;99.90;;;;;;4133138;28;20050;-56
2024/03/20 04:07:08;;;;;;;1.00;0.80;;;12.40;99.90;;;;;;4134346;28;20059;-54
2024/03/20 04:09:12;;;;;;;1.38;1.10;;;12.40;99.90;;;;;;4116122;28;20418;-53
2024/03/20 04:11:14;;;;;;;0.50;0.50;;;12.30;99.90;;;;;;4132486;28;20054;-53
2024/03/20 04:13:15;;;;;;;1.77;0.70;;;12.40;99.90;;;;;;4132436;28;20460;-53
2024/03/20 04:15:18;;;;;;;2.17;0.75;;;12.40;99.90;;;;;;4134017;28;20050;-54
2024/03/20 04:17:19;;;;;;;0.70;0.65;;;12.40;99.90;;;;;;4134604;28;20433;-53
2024/03/20 04:19:21;;;;;;;1.00;0.60;;;12.40;99.90;;;;;;4134660;28;20069;-57
2024/03/20 04:21:24;;;;;;;18.60;2.15;;;12.50;99.90;;;;;;4135227;28;20052;-53
2024/03/20 04:23:26;;;;;;;0.77;0.73;;;12.40;99.90;;;;;;4134836;28;20046;-54
2024/03/20 04:25:28;;;;;;;2.90;1.67;;;12.30;99.90;;;;;;4133795;28;20065;-54
2024/03/20 04:27:30;;;;;;;0.90;0.73;;;12.30;99.90;;;;;;4132839;28;20057;-53
2024/03/20 04:29:31;;;;;;;0.82;0.70;;;12.30;99.90;;;;;;4132518;28;20518;-53
2024/03/20 04:31:34;;;;;;;3.25;2.03;;;12.40;99.90;;;;;;4118900;28;20050;-52
2024/03/20 04:33:35;;;;;;;5.40;1.38;;;12.50;99.90;;;;;;4116359;28;20055;-54
2024/03/20 04:35:37;;;;;;;2.10;1.50;;;12.50;99.90;;;;;;4115747;28;20061;-55
2024/03/20 04:37:39;;;;;;;2.20;1.00;;;12.50;99.90;;;;;;4099393;29;20495;-55
2024/03/20 04:39:41;;;;;;;1.13;1.02;;;12.40;99.90;;;;;;4115525;28;20050;-55
2024/03/20 04:41:42;;;;;;;2.15;1.20;;;12.40;99.90;;;;;;4115525;28;20051;-56
2024/03/20 04:43:43;;;;;;;3.90;1.95;;;12.40;99.90;;;;;;4115611;28;20058;-55
2024/03/20 04:45:45;;;;;;;1.80;1.15;;;12.30;99.90;;;;;;4115495;28;20122;-55
2024/03/20 04:47:48;;;;;;;2.08;1.65;;;12.40;99.90;;;;;;4115118;28;20068;-56
2024/03/20 04:49:49;;;;;;;1.73;0.90;;;12.30;99.90;;;;;;4115377;28;20050;-55
2024/03/20 04:51:51;;;;;;;0.90;0.90;;;12.30;99.90;;;;;;4115345;28;20073;-61
2024/03/20 04:53:52;;;;;;;2.30;0.93;;;12.30;99.90;;;;;;4116286;28;20038;-55
2024/03/20 04:55:53;;;;;;;2.53;0.70;;;12.30;99.90;;;;;;4124960;28;20052;-54
2024/03/20 04:57:55;;;;;;;2.92;0.85;;;12.20;99.90;;;;;;4131833;28;20057;-56
2024/03/20 04:59:56;;;;;;;1.35;0.50;;;12.20;99.90;;;;;;4130934;28;20100;-55
2024/03/20 05:01:58;;;;;;;3.65;1.02;;;12.20;99.90;;;;;;4131386;28;20046;-54
2024/03/20 05:04:03;;;;;;;2.35;0.70;;;12.20;99.90;;;;;;4131528;28;20050;-56
2024/03/20 05:06:05;;;;;;;1.48;1.30;;;12.20;99.90;;;;;;4131456;28;20046;-54
2024/03/20 05:08:06;;;;;;;1.00;0.90;;;12.20;99.90;;;;;;4131151;28;20042;-55
2024/03/20 05:10:09;;;;;;;1.90;0.70;;;12.20;99.90;;;;;;4131168;28;20057;-55
2024/03/20 05:12:10;;;;;;;2.72;1.20;;;12.10;99.90;;;;;;4131349;28;20058;-54
2024/03/20 05:14:12;;;;;;;1.98;0.88;;;12.10;99.90;;;;;;4131105;28;20046;-54
2024/03/20 05:16:13;;;;;;;2.83;0.80;;;12.00;99.90;;;;;;4131142;28;20072;-55
2024/03/20 05:18:14;;;;;;;1.38;1.02;;;12.00;99.90;;;;;;4131100;28;20054;-55
2024/03/20 05:20:19;;;;;;;3.90;1.63;;;12.00;99.90;;;;;;4130897;28;20051;-54
2024/03/20 05:22:20;;;;;;;2.80;1.10;;;12.10;99.90;;;;;;4131100;28;20068;-56
2024/03/20 05:24:21;;;;;;;2.20;1.10;;;12.10;99.90;;;;;;4131083;28;20054;-54
2024/03/20 05:26:23;;;;;;;3.13;1.13;;;12.00;99.90;;;;;;4131302;28;20046;-53
2024/03/20 05:28:25;;;;;;;1.58;1.00;;;12.00;99.90;;;;;;4131516;28;20548;-57
2024/03/20 05:30:26;;;;;;;2.08;0.88;;;12.00;99.90;;;;;;4126295;28;20039;-53
2024/03/20 05:32:27;;;;;;;4.95;2.10;;;12.00;99.90;;;;;;4099003;29;20059;-53
2024/03/20 05:34:29;;;;;;;3.20;1.13;;;12.00;99.90;;;;;;4114750;28;20057;-53
2024/03/20 05:36:31;;;;;;;3.25;1.42;;;12.10;99.90;;;;;;4115013;28;20051;-54
2024/03/20 05:38:33;;;;;;;2.00;1.27;;;12.00;99.90;;;;;;4100500;29;20059;-57
2024/03/20 05:40:34;;;;;;;3.13;0.93;;;12.00;99.90;;;;;;4115209;28;20056;-56
2024/03/20 05:42:36;;;;;;;5.03;1.58;;;12.00;99.90;;;;;;4114950;28;20077;-56
2024/03/20 05:44:39;;;;;;;1.85;0.85;;;12.10;99.90;;;;;;4114522;28;20050;-56
2024/03/20 05:46:40;;;;;;;2.15;1.02;;;12.10;99.90;;;;;;4114787;28;20058;-56
2024/03/20 05:48:43;;;;;;;6.60;2.22;;;12.20;99.90;;;;;;4115306;28;20054;-53
2024/03/20 05:50:44;;;;;;;3.97;1.40;;;12.20;99.90;;;;;;4117192;28;20098;-56
2024/03/20 05:52:47;;;;;;;1.65;1.08;;;12.10;99.90;;;;;;4100630;28;20059;-55
2024/03/20 05:54:48;;;;;;;2.35;1.00;;;12.10;99.90;;;;;;4115636;28;20047;-55
2024/03/20 05:56:51;;;;;;;4.60;1.17;;;12.10;99.90;;;;;;4115615;28;20503;-56
2024/03/20 05:58:52;;;;;;;3.70;1.65;;;12.20;99.90;;;;;;4130408;28;20054;-55
2024/03/20 06:00:55;;;;;;;2.03;1.23;;;12.20;99.90;;;;;;4130764;28;20046;-55
2024/03/20 06:02:56;;;;;;;11.25;1.80;;;12.20;99.90;;;;;;4130498;28;20057;-54
2024/03/20 06:04:58;;;;;;;2.63;1.00;;;12.20;99.90;;;;;;4130616;28;20060;-55
2024/03/20 06:06:59;;;;;;;3.33;0.93;;;12.10;99.90;;;;;;4130342;28;20046;-54
2024/03/20 06:09:03;;;;;;;1.08;1.02;;;12.10;99.90;;;;;;4130432;28;20061;-55
2024/03/20 06:11:18;;;;;;;6.47;2.35;;;12.10;99.90;;;;;;4130382;28;20062;-55
2024/03/20 06:13:19;;;;;;;5.47;1.05;;;12.20;99.90;;;;;;4134692;28;20137;-55
2024/03/20 06:15:21;;;;;;;2.88;1.58;;;12.20;99.90;;;;;;4130407;28;20529;-55
2024/03/20 06:17:23;;;;;;;2.08;1.33;;;12.20;99.90;;;;;;4130495;28;20076;-55
2024/03/20 06:19:25;;;;;;;3.95;2.35;;;12.20;99.90;;;;;;4117248;28;20057;-55
2024/03/20 06:21:26;;;;;;;2.65;1.33;;;12.20;99.90;;;;;;4135967;28;20104;-55
2024/03/20 06:23:28;;;;;;;3.22;1.15;;;12.20;99.90;;;;;;4136085;28;20054;-55
2024/03/20 06:25:32;;;;;;;1.52;1.20;;;12.20;99.90;;;;;;4135846;28;20042;-55
2024/03/20 06:27:34;;;;;;;1.40;1.20;;;12.20;99.90;;;;;;4136637;28;20058;-55
2024/03/20 06:29:35;;;;;;;8.20;2.25;;;12.20;99.90;;;;;;4127042;28;20476;-61
2024/03/20 06:31:37;;;;;;;1.80;0.88;;;12.20;99.90;;;;;;4124788;28;20047;-54
2024/03/20 06:33:40;;;;;;;2.08;1.10;;;12.20;99.90;;;;;;4106760;28;20053;-56
2024/03/20 06:35:42;;;;;;;3.17;1.00;;;12.20;99.90;;;;;;4120259;28;20069;-55
2024/03/20 06:37:45;;;;;;;2.80;1.38;;;12.20;99.90;;;;;;4120113;28;20054;-55
2024/03/20 06:39:46;;;;;;;2.90;1.00;;;12.20;99.90;;;;;;4119888;28;20046;-55
2024/03/20 06:41:49;;;;;;;2.55;1.17;;;12.30;99.90;;;;;;4119826;28;20426;-55
2024/03/20 06:43:52;;;;;;;3.03;1.00;;;12.30;99.90;;;;;;4119173;28;20053;-55
2024/03/20 06:45:53;;;;;;;0.68;0.60;;;12.30;99.90;;;;;;4119574;28;20051;-56
2024/03/20 06:47:55;;;;;;;1.23;0.75;;;12.30;99.90;;;;;;4119442;28;20061;-55
2024/03/20 06:49:56;;;;;;;1.40;0.70;;;12.40;99.90;;;;;;4119148;28;20051;-55
2024/03/20 06:51:58;;;;;;;1.67;0.70;;;12.30;99.90;;;;;;4119143;28;20054;-55
2024/03/20 06:54:09;;;;;;;2.00;1.13;;;12.40;99.90;;;;;;4119355;28;20047;-55
2024/03/20 06:56:11;;;;;;;1.63;1.40;;;12.40;99.90;;;;;;4130872;28;20046;-56
2024/03/20 06:58:13;;;;;;;2.03;0.90;;;12.40;99.90;;;;;;4135299;28;20454;-54
2024/03/20 07:00:18;;;;;;;1.27;1.13;;;12.50;99.90;;;;;;4135346;28;20057;-55
2024/03/20 07:02:21;;;;;;;2.58;0.82;;;12.50;99.90;;;;;;4135425;28;20091;-56
2024/03/20 07:04:23;;;;;;;3.72;1.52;;;12.50;99.90;;;;;;4135762;28;20054;-56
2024/03/20 07:06:24;;;;;;;1.08;0.80;;;12.50;99.90;;;;;;4136003;28;20048;-55
2024/03/20 07:08:27;;;;;;;2.13;1.25;;;12.60;99.90;;;;;;4135871;28;20054;-55
2024/03/20 07:10:28;;;;;;;2.45;1.67;;;12.60;99.90;;;;;;4135568;28;20046;-54
2024/03/20 07:12:30;;;;;;;6.07;1.00;;;12.60;99.90;;;;;;4135245;28;20562;-56
2024/03/20 07:14:34;;;;;;;3.13;1.08;;;12.70;99.90;;;;;;4135637;28;20076;-54
2024/03/20 07:16:36;;;;;;;1.65;0.90;;;12.80;99.90;;;;;;4135550;28;20046;-56
2024/03/20 07:18:38;;;;;;;3.88;1.13;;;12.80;99.90;;;;;;4136458;28;20064;-59
2024/03/20 07:20:39;;;;;;;3.92;1.70;;;12.80;99.90;;;;;;4136242;28;20058;-56
2024/03/20 07:22:41;;;;;;;5.28;2.03;;;12.90;99.90;;;;;;4135303;28;20068;-54
2024/03/20 07:24:42;;;;;;;1.25;1.10;;;12.90;99.90;;;;;;4119221;28;20510;-55
2024/03/20 07:26:43;;;;;;;2.53;2.20;;;13.00;99.90;;;;;;4135258;28;20046;-55
2024/03/20 07:28:45;;;;;;;2.88;1.40;;;13.00;99.90;;;;;;4135335;28;20506;-55
2024/03/20 07:30:48;;;;;;;1.85;1.20;;;13.20;99.80;;;;;;4125772;28;20051;-55
2024/03/20 07:32:49;;;;;;;1.90;1.63;;;13.30;99.70;;;;;;4117538;28;20096;-55
2024/03/20 07:34:51;;;;;;;5.22;1.88;;;13.50;99.30;;;;;;4118586;28;20515;-52
2024/03/20 07:36:52;;;;;;;1.83;1.23;;;13.60;99.30;;;;;;4118579;28;20055;-55
2024/03/20 07:38:55;;;;;;;2.67;1.30;;;13.70;99.00;;;;;;4116835;28;20047;-55
2024/03/20 07:40:56;;;;;;;4.03;1.80;;;13.90;98.80;;;;;;4116562;28;20043;-52
2024/03/20 07:42:59;;;;;;;1.38;1.15;;;14.00;98.60;;;;;;4116704;28;20043;-53
2024/03/20 07:45:00;;;;;;;2.00;1.27;;;14.20;98.20;;;;;;4118250;28;20097;-53
2024/03/20 07:47:04;;;;;;;1.35;1.10;;;14.30;98.40;;;;;;4117621;28;20054;-53
2024/03/20 07:49:06;;;;;;;2.22;1.20;;;14.30;98.30;;;;;;4118174;28;20093;-65
2024/03/20 07:51:07;;;;;;;4.50;1.38;;;14.40;98.10;;;;;;4118286;28;20081;-56
2024/03/20 07:53:09;;;;;;;1.65;1.08;;;14.40;98.30;;;;;;4117560;28;20050;-55
2024/03/20 07:55:11;;;;;;;2.65;1.40;;;14.50;98.20;;;;;;4119842;28;20039;-60
2024/03/20 07:57:12;;;;;;;3.45;2.13;;;14.50;98.20;;;;;;4132583;28;20054;-56
2024/03/20 07:59:13;;;;;;;2.53;1.33;;;14.70;98.00;;;;;;4132277;28;20072;-58
2024/03/20 08:01:15;;;;;;;3.40;1.70;;;14.80;97.70;;;;;;4132180;28;20058;-52
2024/03/20 08:03:19;;;;;;;3.25;1.05;;;14.90;98.10;;;;;;4132220;28;20506;-53
2024/03/20 08:05:20;;;;;;;1.73;1.58;;;15.00;97.30;;;;;;4132170;28;20055;-54
2024/03/20 08:07:22;;;;;;;2.47;1.30;;;15.10;97.40;;;;;;4132505;28;20057;-55
2024/03/20 08:09:23;;;;;;;3.88;1.13;;;15.30;97.50;;;;;;4131987;28;20053;-55
2024/03/20 08:11:24;;;;;;;3.28;1.25;;;15.50;96.90;;;;;;4132477;28;20065;-56
2024/03/20 08:13:26;;;;;;;1.88;1.35;;;15.60;97.00;;;;;;4133102;28;20054;-54
2024/03/20 08:15:28;;;;;;;2.25;1.30;;;15.70;96.40;;;;;;4133431;28;20068;-55
2024/03/20 08:17:29;;;;;;;3.88;1.55;;;15.80;96.60;;;;;;4132160;28;20144;-55
2024/03/20 08:19:32;;;;;;;7.03;1.88;;;15.90;96.20;;;;;;4132067;28;20047;-55
2024/03/20 08:21:34;;;;;;;3.10;1.20;;;15.70;96.60;;;;;;4131953;28;20178;-55
2024/03/20 08:23:36;;;;;;;1.58;1.27;;;15.70;96.70;;;;;;4131488;28;20064;-55
2024/03/20 08:25:37;;;;;;;4.15;2.35;;;15.70;96.30;;;;;;4131809;28;20050;-55
2024/03/20 08:27:40;;;;;;;3.35;1.42;;;15.70;96.60;;;;;;4132262;28;20055;-54
2024/03/20 08:29:41;;;;;;;4.93;1.48;;;15.70;96.30;;;;;;4132183;28;20051;-57
2024/03/20 08:31:43;;;;;;;7.22;2.00;;;15.80;96.20;;;;;;4126434;28;20047;-57
2024/03/20 08:33:46;;;;;;;2.20;1.35;;;15.80;96.20;;;;;;4116022;28;20054;-55
2024/03/20 08:35:55;;;;;;;5.20;1.55;;;15.80;96.30;;;;;;4115697;28;20120;-57
2024/03/20 08:37:56;;;;;;;3.78;2.35;;;15.90;96.20;;;;;;4115782;28;20491;-55
2024/03/20 08:40:01;;;;;;;2.58;1.70;;;15.90;96.10;;;;;;4116133;28;20054;-58
2024/03/20 08:42:02;;;;;;;3.33;1.83;;;15.80;96.20;;;;;;4117597;28;20063;-56
2024/03/20 08:44:04;;;;;;;2.15;1.35;;;15.80;96.40;;;;;;4117499;28;20533;-55
2024/03/20 08:46:08;;;;;;;4.30;1.50;;;15.90;96.10;;;;;;4099548;29;20055;-55
2024/03/20 08:48:09;;;;;;;3.22;1.50;;;15.80;96.30;;;;;;4115246;28;20047;-56
2024/03/20 08:50:13;;;;;;;3.58;1.30;;;15.80;96.60;;;;;;4115253;28;20446;-57
2024/03/20 08:52:15;;;;;;;4.25;1.70;;;15.80;96.60;;;;;;4115187;28;20544;-57
2024/03/20 08:54:18;;;;;;;3.50;1.67;;;15.80;96.60;;;;;;4114872;28;20110;-57
2024/03/20 08:56:19;;;;;;;2.22;1.50;;;15.90;96.50;;;;;;4127964;28;20068;-58
2024/03/20 08:58:21;;;;;;;3.17;1.10;;;16.00;96.60;;;;;;4131359;28;20528;-57
2024/03/20 09:00:22;;;;;;;3.17;1.20;;;16.10;96.10;;;;;;4115304;28;20630;-57
2024/03/20 09:02:23;;;;;;;3.95;2.08;;;16.20;96.00;;;;;;4131378;28;20047;-56
2024/03/20 09:04:25;;;;;;;4.45;1.60;;;16.20;96.10;;;;;;4131564;28;20508;-56
2024/03/20 09:06:26;;;;;;;3.63;1.67;;;16.10;96.00;;;;;;4131519;28;20528;-58
2024/03/20 09:08:29;;;;;;;4.05;2.47;;;16.20;96.30;;;;;;4130875;28;20054;-57
2024/03/20 09:10:30;;;;;;;1.25;0.95;;;16.20;96.40;;;;;;4115173;28;20057;-56
2024/03/20 09:12:34;;;;;;;3.80;1.20;;;16.20;96.40;;;;;;4115304;28;20573;-55
2024/03/20 09:14:36;;;;;;;7.90;2.95;;;16.30;96.30;;;;;;4131455;28;20046;-53
2024/03/20 09:16:37;;;;;;;4.97;1.30;;;16.20;96.00;;;;;;4131239;28;20429;-53
2024/03/20 09:18:38;;;;;;;3.60;1.75;;;16.40;96.20;;;;;;4131669;28;20054;-62
2024/03/20 09:20:40;;;;;;;1.92;1.17;;;16.60;95.90;;;;;;4132690;28;20056;-54
2024/03/20 09:22:43;;;;;;;3.03;0.95;;;16.80;95.50;;;;;;4130926;28;20433;-55
2024/03/20 09:24:46;;;;;;;2.45;1.38;;;16.80;95.80;;;;;;4130979;28;20046;-54
2024/03/20 09:26:47;;;;;;;5.00;2.28;;;17.20;95.50;;;;;;4131061;28;20433;-54
2024/03/20 09:28:48;;;;;;;1.95;1.38;;;17.10;95.40;;;;;;4130909;28;20054;-54
2024/03/20 09:30:50;;;;;;;2.42;1.20;;;17.10;95.20;;;;;;4123326;28;20043;-54
2024/03/20 09:32:51;;;;;;;2.90;1.50;;;17.10;95.10;;;;;;4108989;28;20098;-54
2024/03/20 09:34:53;;;;;;;2.45;1.27;;;17.20;95.00;;;;;;4098615;29;20063;-57
2024/03/20 09:36:55;;;;;;;3.25;2.05;;;17.10;95.30;;;;;;4100086;29;20131;-56
2024/03/20 09:38:57;;;;;;;1.88;1.10;;;17.10;95.60;;;;;;4100290;29;20165;-57
2024/03/20 09:40:59;;;;;;;5.40;2.15;;;17.20;95.00;;;;;;4100341;29;20055;-56
2024/03/20 09:43:02;;;;;;;2.63;1.67;;;17.20;95.00;;;;;;4099495;29;20541;-60
2024/03/20 09:45:05;;;;;;;9.43;1.75;;;17.20;94.90;;;;;;4098755;29;20073;-56
2024/03/20 09:47:09;;;;;;;1.75;1.10;;;17.00;94.90;;;;;;4098701;29;20047;-56
2024/03/20 09:49:10;;;;;;;4.07;2.00;;;17.00;95.00;;;;;;4106560;28;20061;-57
2024/03/20 09:51:12;;;;;;;2.70;1.55;;;17.00;94.80;;;;;;4113940;28;20057;-56
2024/03/20 09:53:14;;;;;;;2.67;1.15;;;17.00;95.10;;;;;;4114265;28;20540;-58
2024/03/20 09:55:17;;;;;;;4.53;2.08;;;17.10;95.10;;;;;;4117794;28;20049;-58
2024/03/20 09:57:29;;;;;;;4.72;2.00;;;17.20;95.00;;;;;;4130466;28;20046;-56
2024/03/20 09:59:30;;;;;;;1.98;1.35;;;17.30;95.10;;;;;;4107624;28;20055;-55
2024/03/20 10:01:32;;;;;;;2.75;1.10;;;17.30;95.10;;;;;;4098032;29;20058;-57
2024/03/20 10:03:33;;;;;;;6.03;1.95;;;17.40;94.60;;;;;;4098344;29;20059;-56
2024/03/20 10:05:40;;;;;;;3.28;1.67;;;17.50;94.40;;;;;;4098880;28;20047;-57
2024/03/20 10:07:43;;;;;;;3.15;1.23;;;17.50;94.60;;;;;;4098213;29;20054;-56
2024/03/20 10:09:45;;;;;;;3.83;1.75;;;17.60;94.60;;;;;;4100085;28;20055;-56
2024/03/20 10:11:47;;;;;;;24.40;1.55;;;17.80;94.00;;;;;;4111137;28;20483;-56
2024/03/20 10:13:51;;;;;;;1.67;1.00;;;17.80;93.70;;;;;;4113961;28;20047;-57
2024/03/20 10:16:03;;;;;;;3.80;1.88;;;17.80;94.10;;;;;;4104702;28;20057;-57
2024/03/20 10:18:05;;;;;;;3.17;1.35;;;18.00;94.30;;;;;;4114212;28;20051;-57
2024/03/20 10:20:16;;;;;;;5.15;2.25;;;18.10;93.50;;;;;;4097773;29;20414;-57
2024/03/20 10:22:17;;;;;;;1.58;1.08;;;18.10;93.50;;;;;;4114473;28;20047;-56
2024/03/20 10:24:21;;;;;;;4.78;1.80;;;18.10;93.40;;;;;;4113914;28;20050;-57
2024/03/20 10:26:23;;;;;;;1.95;1.15;;;18.10;93.40;;;;;;4114243;28;20428;-56
2024/03/20 10:28:29;;;;;;;11.27;1.95;;;18.30;93.50;;;;;;4113902;28;20043;-56
2024/03/20 10:30:32;;;;;;;3.78;1.63;;;18.30;93.20;;;;;;4111331;28;20043;-57
2024/03/20 10:32:35;;;;;;;2.50;1.80;;;18.40;93.30;;;;;;4109879;28;20069;-56
2024/03/20 10:34:38;;;;;;;4.28;1.40;;;18.50;92.90;;;;;;4113505;28;20061;-56